sensor_id;sensor_type;location;lat;lon;timestamp;temperature;humidity
10384;DHT22;5238;43.508;4.980;2023-04-28T00:01:51;17.40;91.30
10384;DHT22;5238;43.508;4.980;2023-04-28T00:04:20;17.40;91.30
10384;DHT22;5238;43.508;4.980;2023-04-28T00:06:49;17.40;91.30
10384;DHT22;5238;43.508;4.980;2023-04-28T00:09:19;17.40;91.30
10384;DHT22;5238;43.508;4.980;2023-04-28T00:11:49;17.40;91.30
10384;DHT22;5238;43.508;4.980;2023-04-28T00:14:16;17.30;91.30
10384;DHT22;5238;43.508;4.980;2023-04-28T00:16:43;17.30;91.30
10384;DHT22;5238;43.508;4.980;2023-04-28T00:19:12;17.30;91.30
10384;DHT22;5238;43.508;4.980;2023-04-28T00:21:42;17.30;91.30
10384;DHT22;5238;43.508;4.980;2023-04-28T00:24:09;17.30;91.30
10384;DHT22;5238;43.508;4.980;2023-04-28T00:26:38;17.30;91.30
10384;DHT22;5238;43.508;4.980;2023-04-28T00:29:07;17.30;91.30
10384;DHT22;5238;43.508;4.980;2023-04-28T00:31:34;17.30;91.30
10384;DHT22;5238;43.508;4.980;2023-04-28T00:34:03;17.30;91.30
10384;DHT22;5238;43.508;4.980;2023-04-28T00:36:30;17.30;91.30
10384;DHT22;5238;43.508;4.980;2023-04-28T00:38:58;17.30;91.30
10384;DHT22;5238;43.508;4.980;2023-04-28T00:41:25;17.30;91.30
10384;DHT22;5238;43.508;4.980;2023-04-28T00:43:52;17.20;91.30
10384;DHT22;5238;43.508;4.980;2023-04-28T00:46:26;17.20;91.30
10384;DHT22;5238;43.508;4.980;2023-04-28T00:48:58;17.20;91.30
10384;DHT22;5238;43.508;4.980;2023-04-28T00:51:31;17.20;91.30
10384;DHT22;5238;43.508;4.980;2023-04-28T00:53:59;17.20;91.30
10384;DHT22;5238;43.508;4.980;2023-04-28T00:56:29;17.20;91.30
10384;DHT22;5238;43.508;4.980;2023-04-28T00:58:56;17.20;91.30
10384;DHT22;5238;43.508;4.980;2023-04-28T01:01:27;17.10;91.30
10384;DHT22;5238;43.508;4.980;2023-04-28T01:03:54;17.10;91.30
10384;DHT22;5238;43.508;4.980;2023-04-28T01:06:21;17.10;91.30
10384;DHT22;5238;43.508;4.980;2023-04-28T01:08:49;17.00;91.30
10384;DHT22;5238;43.508;4.980;2023-04-28T01:11:18;17.00;91.30
10384;DHT22;5238;43.508;4.980;2023-04-28T01:13:45;17.00;91.30
10384;DHT22;5238;43.508;4.980;2023-04-28T01:16:14;17.00;91.30
10384;DHT22;5238;43.508;4.980;2023-04-28T01:18:46;17.00;91.30
10384;DHT22;5238;43.508;4.980;2023-04-28T01:21:13;17.00;91.30
10384;DHT22;5238;43.508;4.980;2023-04-28T01:23:42;16.90;91.30
10384;DHT22;5238;43.508;4.980;2023-04-28T01:26:10;16.90;91.30
10384;DHT22;5238;43.508;4.980;2023-04-28T01:28:42;16.90;91.30
10384;DHT22;5238;43.508;4.980;2023-04-28T01:31:08;16.90;91.30
10384;DHT22;5238;43.508;4.980;2023-04-28T01:33:42;16.90;91.30
10384;DHT22;5238;43.508;4.980;2023-04-28T01:36:09;16.80;91.30
10384;DHT22;5238;43.508;4.980;2023-04-28T01:38:42;16.80;91.30
10384;DHT22;5238;43.508;4.980;2023-04-28T01:41:10;16.80;91.30
10384;DHT22;5238;43.508;4.980;2023-04-28T01:43:37;16.80;91.30
10384;DHT22;5238;43.508;4.980;2023-04-28T01:46:04;16.80;91.30
10384;DHT22;5238;43.508;4.980;2023-04-28T01:48:33;16.70;91.30
10384;DHT22;5238;43.508;4.980;2023-04-28T01:51:00;16.70;91.30
10384;DHT22;5238;43.508;4.980;2023-04-28T01:53:30;16.70;91.30
10384;DHT22;5238;43.508;4.980;2023-04-28T01:55:57;16.70;91.30
10384;DHT22;5238;43.508;4.980;2023-04-28T01:58:27;16.60;91.30
10384;DHT22;5238;43.508;4.980;2023-04-28T02:00:57;16.60;91.30
10384;DHT22;5238;43.508;4.980;2023-04-28T02:03:24;16.60;91.30
10384;DHT22;5238;43.508;4.980;2023-04-28T02:05:52;16.60;91.30
10384;DHT22;5238;43.508;4.980;2023-04-28T02:08:20;16.60;91.30
10384;DHT22;5238;43.508;4.980;2023-04-28T02:10:51;16.60;91.30
10384;DHT22;5238;43.508;4.980;2023-04-28T02:13:18;16.60;91.30
10384;DHT22;5238;43.508;4.980;2023-04-28T02:15:47;16.60;91.30
10384;DHT22;5238;43.508;4.980;2023-04-28T02:18:14;16.60;91.30
10384;DHT22;5238;43.508;4.980;2023-04-28T02:20:40;16.60;91.30
10384;DHT22;5238;43.508;4.980;2023-04-28T02:23:09;16.50;91.30
10384;DHT22;5238;43.508;4.980;2023-04-28T02:25:36;16.50;91.30
10384;DHT22;5238;43.508;4.980;2023-04-28T02:28:03;16.40;91.30
10384;DHT22;5238;43.508;4.980;2023-04-28T02:30:37;16.40;91.30
10384;DHT22;5238;43.508;4.980;2023-04-28T02:33:05;16.30;91.30
10384;DHT22;5238;43.508;4.980;2023-04-28T02:35:34;16.30;91.30
10384;DHT22;5238;43.508;4.980;2023-04-28T02:38:07;16.20;91.30
10384;DHT22;5238;43.508;4.980;2023-04-28T02:40:34;16.10;91.30
10384;DHT22;5238;43.508;4.980;2023-04-28T02:43:04;16.10;91.30
10384;DHT22;5238;43.508;4.980;2023-04-28T02:45:31;16.00;91.30
10384;DHT22;5238;43.508;4.980;2023-04-28T02:48:01;16.00;91.30
10384;DHT22;5238;43.508;4.980;2023-04-28T02:50:32;16.00;91.30
10384;DHT22;5238;43.508;4.980;2023-04-28T02:52:59;16.00;91.30
10384;DHT22;5238;43.508;4.980;2023-04-28T02:55:28;16.00;91.30
10384;DHT22;5238;43.508;4.980;2023-04-28T02:57:58;15.90;91.30
10384;DHT22;5238;43.508;4.980;2023-04-28T03:00:33;15.90;91.30
10384;DHT22;5238;43.508;4.980;2023-04-28T03:03:00;15.80;91.30
10384;DHT22;5238;43.508;4.980;2023-04-28T03:05:27;15.80;91.30
10384;DHT22;5238;43.508;4.980;2023-04-28T03:07:57;15.80;91.30
10384;DHT22;5238;43.508;4.980;2023-04-28T03:10:27;15.70;91.30
10384;DHT22;5238;43.508;4.980;2023-04-28T03:12:54;15.70;91.30
10384;DHT22;5238;43.508;4.980;2023-04-28T03:15:21;15.60;91.30
10384;DHT22;5238;43.508;4.980;2023-04-28T03:17:48;15.60;91.30
10384;DHT22;5238;43.508;4.980;2023-04-28T03:20:20;15.60;91.30
10384;DHT22;5238;43.508;4.980;2023-04-28T03:22:54;15.60;91.30
10384;DHT22;5238;43.508;4.980;2023-04-28T03:25:25;15.60;91.30
10384;DHT22;5238;43.508;4.980;2023-04-28T03:28:06;15.60;91.30
10384;DHT22;5238;43.508;4.980;2023-04-28T03:30:38;15.60;91.30
10384;DHT22;5238;43.508;4.980;2023-04-28T03:33:05;15.60;91.30
10384;DHT22;5238;43.508;4.980;2023-04-28T03:35:37;15.60;91.30
10384;DHT22;5238;43.508;4.980;2023-04-28T03:38:04;15.60;91.30
10384;DHT22;5238;43.508;4.980;2023-04-28T03:40:33;15.60;91.30
10384;DHT22;5238;43.508;4.980;2023-04-28T03:43:03;15.60;91.30
10384;DHT22;5238;43.508;4.980;2023-04-28T03:45:30;15.60;91.30
10384;DHT22;5238;43.508;4.980;2023-04-28T03:47:58;15.60;91.30
10384;DHT22;5238;43.508;4.980;2023-04-28T03:50:27;15.70;91.30
10384;DHT22;5238;43.508;4.980;2023-04-28T03:53:01;15.60;91.30
10384;DHT22;5238;43.508;4.980;2023-04-28T03:55:46;15.60;91.30
10384;DHT22;5238;43.508;4.980;2023-04-28T03:58:19;15.60;91.30
10384;DHT22;5238;43.508;4.980;2023-04-28T04:00:49;15.60;91.30
10384;DHT22;5238;43.508;4.980;2023-04-28T04:03:17;15.60;91.30
10384;DHT22;5238;43.508;4.980;2023-04-28T04:05:48;15.60;91.30
10384;DHT22;5238;43.508;4.980;2023-04-28T04:08:16;15.60;91.30
10384;DHT22;5238;43.508;4.980;2023-04-28T04:10:47;15.60;91.30
10384;DHT22;5238;43.508;4.980;2023-04-28T04:13:16;15.60;91.30
10384;DHT22;5238;43.508;4.980;2023-04-28T04:15:43;15.70;91.30
10384;DHT22;5238;43.508;4.980;2023-04-28T04:18:10;15.70;91.30
10384;DHT22;5238;43.508;4.980;2023-04-28T04:20:37;15.60;91.30
10384;DHT22;5238;43.508;4.980;2023-04-28T04:23:04;15.60;91.30
10384;DHT22;5238;43.508;4.980;2023-04-28T04:25:31;15.60;91.30
10384;DHT22;5238;43.508;4.980;2023-04-28T04:28:04;15.60;91.30
10384;DHT22;5238;43.508;4.980;2023-04-28T04:30:31;15.60;91.30
10384;DHT22;5238;43.508;4.980;2023-04-28T04:32:58;15.60;91.30
10384;DHT22;5238;43.508;4.980;2023-04-28T04:35:25;15.60;91.30
10384;DHT22;5238;43.508;4.980;2023-04-28T04:37:53;15.60;91.30
10384;DHT22;5238;43.508;4.980;2023-04-28T04:40:24;15.60;91.30
10384;DHT22;5238;43.508;4.980;2023-04-28T04:42:51;15.60;91.30
10384;DHT22;5238;43.508;4.980;2023-04-28T04:45:23;15.60;91.30
10384;DHT22;5238;43.508;4.980;2023-04-28T04:47:51;15.50;91.30
10384;DHT22;5238;43.508;4.980;2023-04-28T04:50:20;15.50;91.30
10384;DHT22;5238;43.508;4.980;2023-04-28T04:52:47;15.50;91.30
10384;DHT22;5238;43.508;4.980;2023-04-28T04:55:19;15.50;91.30
10384;DHT22;5238;43.508;4.980;2023-04-28T04:57:46;15.50;91.30
10384;DHT22;5238;43.508;4.980;2023-04-28T05:00:14;15.50;91.30
10384;DHT22;5238;43.508;4.980;2023-04-28T05:02:47;15.60;91.30
10384;DHT22;5238;43.508;4.980;2023-04-28T05:05:14;15.60;91.30
10384;DHT22;5238;43.508;4.980;2023-04-28T05:07:45;15.60;91.30
10384;DHT22;5238;43.508;4.980;2023-04-28T05:10:12;15.70;91.30
10384;DHT22;5238;43.508;4.980;2023-04-28T05:12:42;15.70;91.30
10384;DHT22;5238;43.508;4.980;2023-04-28T05:15:09;15.80;91.30
10384;DHT22;5238;43.508;4.980;2023-04-28T05:17:37;15.80;91.30
10384;DHT22;5238;43.508;4.980;2023-04-28T05:20:06;15.90;91.30
10384;DHT22;5238;43.508;4.980;2023-04-28T05:22:33;16.00;91.30
10384;DHT22;5238;43.508;4.980;2023-04-28T05:25:02;16.10;91.30
10384;DHT22;5238;43.508;4.980;2023-04-28T05:27:29;16.10;91.30
10384;DHT22;5238;43.508;4.980;2023-04-28T05:29:58;16.20;91.30
10384;DHT22;5238;43.508;4.980;2023-04-28T05:32:25;16.20;91.30
10384;DHT22;5238;43.508;4.980;2023-04-28T05:34:58;16.30;91.30
10384;DHT22;5238;43.508;4.980;2023-04-28T05:37:31;16.40;91.30
10384;DHT22;5238;43.508;4.980;2023-04-28T05:40:01;16.40;91.30
10384;DHT22;5238;43.508;4.980;2023-04-28T05:42:30;16.50;91.30
10384;DHT22;5238;43.508;4.980;2023-04-28T05:44:59;16.50;91.30
10384;DHT22;5238;43.508;4.980;2023-04-28T05:47:27;16.60;91.30
10384;DHT22;5238;43.508;4.980;2023-04-28T05:49:55;16.60;91.30
10384;DHT22;5238;43.508;4.980;2023-04-28T05:52:23;16.60;91.30
10384;DHT22;5238;43.508;4.980;2023-04-28T05:54:53;16.70;91.30
10384;DHT22;5238;43.508;4.980;2023-04-28T05:57:25;16.70;91.30
10384;DHT22;5238;43.508;4.980;2023-04-28T05:59:55;16.80;91.30
10384;DHT22;5238;43.508;4.980;2023-04-28T06:02:27;16.90;91.30
10384;DHT22;5238;43.508;4.980;2023-04-28T06:04:55;16.90;91.30
10384;DHT22;5238;43.508;4.980;2023-04-28T06:07:22;17.00;91.30
10384;DHT22;5238;43.508;4.980;2023-04-28T06:09:56;17.10;91.30
10384;DHT22;5238;43.508;4.980;2023-04-28T06:12:25;17.20;91.30
10384;DHT22;5238;43.508;4.980;2023-04-28T06:14:52;17.30;91.30
10384;DHT22;5238;43.508;4.980;2023-04-28T06:17:22;17.50;91.30
10384;DHT22;5238;43.508;4.980;2023-04-28T06:19:52;17.60;91.30
10384;DHT22;5238;43.508;4.980;2023-04-28T06:22:22;17.80;91.30
10384;DHT22;5238;43.508;4.980;2023-04-28T06:24:51;18.00;91.30
10384;DHT22;5238;43.508;4.980;2023-04-28T06:27:20;18.20;91.30
10384;DHT22;5238;43.508;4.980;2023-04-28T06:29:47;18.40;91.30
10384;DHT22;5238;43.508;4.980;2023-04-28T06:32:14;18.60;91.30
10384;DHT22;5238;43.508;4.980;2023-04-28T06:34:44;18.70;91.30
10384;DHT22;5238;43.508;4.980;2023-04-28T06:37:11;18.90;91.30
10384;DHT22;5238;43.508;4.980;2023-04-28T06:39:38;19.10;91.30
10384;DHT22;5238;43.508;4.980;2023-04-28T06:42:07;19.30;91.30
10384;DHT22;5238;43.508;4.980;2023-04-28T06:44:35;19.50;91.30
10384;DHT22;5238;43.508;4.980;2023-04-28T06:47:02;19.80;91.30
10384;DHT22;5238;43.508;4.980;2023-04-28T06:49:29;20.00;91.30
10384;DHT22;5238;43.508;4.980;2023-04-28T06:51:56;20.30;91.30
10384;DHT22;5238;43.508;4.980;2023-04-28T06:54:26;20.60;91.30
10384;DHT22;5238;43.508;4.980;2023-04-28T06:56:54;20.90;91.30
10384;DHT22;5238;43.508;4.980;2023-04-28T06:59:23;21.20;91.30
10384;DHT22;5238;43.508;4.980;2023-04-28T07:01:51;21.50;91.30
10384;DHT22;5238;43.508;4.980;2023-04-28T07:04:20;21.80;91.30
10384;DHT22;5238;43.508;4.980;2023-04-28T07:06:49;22.10;91.30
10384;DHT22;5238;43.508;4.980;2023-04-28T07:09:16;22.40;91.30
10384;DHT22;5238;43.508;4.980;2023-04-28T07:11:43;22.70;91.30
10384;DHT22;5238;43.508;4.980;2023-04-28T07:14:10;23.10;91.30
10384;DHT22;5238;43.508;4.980;2023-04-28T07:16:38;23.40;91.30
10384;DHT22;5238;43.508;4.980;2023-04-28T07:19:09;23.70;91.30
10384;DHT22;5238;43.508;4.980;2023-04-28T07:21:37;24.10;91.30
10384;DHT22;5238;43.508;4.980;2023-04-28T07:24:05;24.20;91.30
10384;DHT22;5238;43.508;4.980;2023-04-28T07:26:34;24.50;91.30
10384;DHT22;5238;43.508;4.980;2023-04-28T07:29:02;24.50;91.30
10384;DHT22;5238;43.508;4.980;2023-04-28T07:31:29;24.60;91.30
10384;DHT22;5238;43.508;4.980;2023-04-28T07:33:58;24.90;91.30
10384;DHT22;5238;43.508;4.980;2023-04-28T07:36:26;25.20;91.30
10384;DHT22;5238;43.508;4.980;2023-04-28T07:38:56;25.50;91.30
10384;DHT22;5238;43.508;4.980;2023-04-28T07:41:25;25.80;91.30
10384;DHT22;5238;43.508;4.980;2023-04-28T07:43:53;26.10;91.30
10384;DHT22;5238;43.508;4.980;2023-04-28T07:46:23;26.40;91.30
10384;DHT22;5238;43.508;4.980;2023-04-28T07:48:50;26.70;91.30
10384;DHT22;5238;43.508;4.980;2023-04-28T07:51:18;26.80;91.30
10384;DHT22;5238;43.508;4.980;2023-04-28T07:53:50;27.10;91.30
10384;DHT22;5238;43.508;4.980;2023-04-28T07:56:18;27.50;91.30
10384;DHT22;5238;43.508;4.980;2023-04-28T07:58:50;27.70;91.30
10384;DHT22;5238;43.508;4.980;2023-04-28T08:01:17;27.70;91.30
10384;DHT22;5238;43.508;4.980;2023-04-28T08:03:46;27.90;91.30
10384;DHT22;5238;43.508;4.980;2023-04-28T08:06:16;28.30;91.30
10384;DHT22;5238;43.508;4.980;2023-04-28T08:08:52;28.30;91.30
10384;DHT22;5238;43.508;4.980;2023-04-28T08:11:19;28.40;91.30
10384;DHT22;5238;43.508;4.980;2023-04-28T08:13:48;28.70;91.30
10384;DHT22;5238;43.508;4.980;2023-04-28T08:16:15;28.90;91.30
10384;DHT22;5238;43.508;4.980;2023-04-28T08:18:51;29.10;91.30
10384;DHT22;5238;43.508;4.980;2023-04-28T08:21:18;29.30;91.30
10384;DHT22;5238;43.508;4.980;2023-04-28T08:23:45;29.30;91.30
10384;DHT22;5238;43.508;4.980;2023-04-28T08:26:14;29.30;91.30
10384;DHT22;5238;43.508;4.980;2023-04-28T08:28:45;29.00;91.30
10384;DHT22;5238;43.508;4.980;2023-04-28T08:31:12;29.10;91.30
10384;DHT22;5238;43.508;4.980;2023-04-28T08:33:39;29.30;91.30
10384;DHT22;5238;43.508;4.980;2023-04-28T08:36:09;29.30;91.30
10384;DHT22;5238;43.508;4.980;2023-04-28T08:38:41;29.40;91.30
10384;DHT22;5238;43.508;4.980;2023-04-28T08:41:09;29.60;91.30
10384;DHT22;5238;43.508;4.980;2023-04-28T08:43:41;29.60;91.30
10384;DHT22;5238;43.508;4.980;2023-04-28T08:46:13;29.30;91.30
10384;DHT22;5238;43.508;4.980;2023-04-28T08:48:46;29.30;91.30
10384;DHT22;5238;43.508;4.980;2023-04-28T08:51:26;29.50;91.30
10384;DHT22;5238;43.508;4.980;2023-04-28T08:54:01;29.80;91.30
10384;DHT22;5238;43.508;4.980;2023-04-28T08:56:32;30.20;91.30
10384;DHT22;5238;43.508;4.980;2023-04-28T08:59:03;30.40;91.30
10384;DHT22;5238;43.508;4.980;2023-04-28T09:01:34;30.50;91.30
10384;DHT22;5238;43.508;4.980;2023-04-28T09:04:12;30.80;91.20
10384;DHT22;5238;43.508;4.980;2023-04-28T09:06:39;31.00;91.30
10384;DHT22;5238;43.508;4.980;2023-04-28T09:09:22;31.20;91.20
10384;DHT22;5238;43.508;4.980;2023-04-28T09:11:55;31.40;91.10
10384;DHT22;5238;43.508;4.980;2023-04-28T09:14:31;31.60;91.10
10384;DHT22;5238;43.508;4.980;2023-04-28T09:17:13;31.80;90.60
10384;DHT22;5238;43.508;4.980;2023-04-28T09:19:44;31.90;90.20
10384;DHT22;5238;43.508;4.980;2023-04-28T09:22:13;32.10;89.20
10384;DHT22;5238;43.508;4.980;2023-04-28T09:24:40;32.10;89.00
10384;DHT22;5238;43.508;4.980;2023-04-28T09:27:10;32.10;88.50
10384;DHT22;5238;43.508;4.980;2023-04-28T09:29:46;32.10;87.80
10384;DHT22;5238;43.508;4.980;2023-04-28T09:32:22;32.10;88.20
10384;DHT22;5238;43.508;4.980;2023-04-28T09:34:56;32.00;88.20
10384;DHT22;5238;43.508;4.980;2023-04-28T09:37:25;32.10;88.80
10384;DHT22;5238;43.508;4.980;2023-04-28T09:39:55;32.30;88.00
10384;DHT22;5238;43.508;4.980;2023-04-28T09:42:42;32.40;88.30
10384;DHT22;5238;43.508;4.980;2023-04-28T09:45:14;32.50;88.60
10384;DHT22;5238;43.508;4.980;2023-04-28T09:47:43;32.60;88.40
10384;DHT22;5238;43.508;4.980;2023-04-28T09:50:14;32.70;87.80
10384;DHT22;5238;43.508;4.980;2023-04-28T09:52:43;32.80;87.10
10384;DHT22;5238;43.508;4.980;2023-04-28T09:55:14;32.90;86.50
10384;DHT22;5238;43.508;4.980;2023-04-28T09:57:45;32.90;87.30
10384;DHT22;5238;43.508;4.980;2023-04-28T10:00:16;33.10;87.40
10384;DHT22;5238;43.508;4.980;2023-04-28T10:02:46;33.30;87.30
10384;DHT22;5238;43.508;4.980;2023-04-28T10:05:16;33.50;86.90
10384;DHT22;5238;43.508;4.980;2023-04-28T10:07:43;33.50;86.10
10384;DHT22;5238;43.508;4.980;2023-04-28T10:10:12;33.70;85.60
10384;DHT22;5238;43.508;4.980;2023-04-28T10:12:40;33.70;85.50
10384;DHT22;5238;43.508;4.980;2023-04-28T10:15:10;33.80;85.80
10384;DHT22;5238;43.508;4.980;2023-04-28T10:17:50;33.80;85.10
10384;DHT22;5238;43.508;4.980;2023-04-28T10:20:17;33.80;85.10
10384;DHT22;5238;43.508;4.980;2023-04-28T10:22:55;33.70;85.40
10384;DHT22;5238;43.508;4.980;2023-04-28T10:25:31;33.50;85.30
10384;DHT22;5238;43.508;4.980;2023-04-28T10:28:07;33.40;86.10
10384;DHT22;5238;43.508;4.980;2023-04-28T10:30:38;33.30;86.40
10384;DHT22;5238;43.508;4.980;2023-04-28T10:33:23;33.00;86.80
10384;DHT22;5238;43.508;4.980;2023-04-28T10:35:53;32.70;87.60
10384;DHT22;5238;43.508;4.980;2023-04-28T10:38:20;32.50;87.90
10384;DHT22;5238;43.508;4.980;2023-04-28T10:40:51;32.30;88.60
10384;DHT22;5238;43.508;4.980;2023-04-28T10:43:35;32.10;89.20
10384;DHT22;5238;43.508;4.980;2023-04-28T10:46:08;32.10;90.00
10384;DHT22;5238;43.508;4.980;2023-04-28T10:49:05;32.10;90.60
10384;DHT22;5238;43.508;4.980;2023-04-28T10:51:34;32.00;90.50
10384;DHT22;5238;43.508;4.980;2023-04-28T10:54:23;31.90;90.90
10384;DHT22;5238;43.508;4.980;2023-04-28T10:57:16;31.70;90.80
10384;DHT22;5238;43.508;4.980;2023-04-28T10:59:50;31.70;91.30
10384;DHT22;5238;43.508;4.980;2023-04-28T11:02:39;31.70;91.30
10384;DHT22;5238;43.508;4.980;2023-04-28T11:05:27;31.60;90.80
10384;DHT22;5238;43.508;4.980;2023-04-28T11:08:34;31.60;91.10
10384;DHT22;5238;43.508;4.980;2023-04-28T11:11:24;31.70;90.60
10384;DHT22;5238;43.508;4.980;2023-04-28T11:17:05;31.70;91.30
10384;DHT22;5238;43.508;4.980;2023-04-28T11:19:35;31.70;90.80
10384;DHT22;5238;43.508;4.980;2023-04-28T11:22:15;31.70;90.80
10384;DHT22;5238;43.508;4.980;2023-04-28T11:24:54;31.80;91.10
10384;DHT22;5238;43.508;4.980;2023-04-28T11:27:28;31.70;90.60
10384;DHT22;5238;43.508;4.980;2023-04-28T11:29:59;31.60;90.90
10384;DHT22;5238;43.508;4.980;2023-04-28T11:32:30;31.40;90.60
10384;DHT22;5238;43.508;4.980;2023-04-28T11:35:01;31.30;91.30
10384;DHT22;5238;43.508;4.980;2023-04-28T11:37:35;31.10;91.30
10384;DHT22;5238;43.508;4.980;2023-04-28T11:40:12;30.90;91.30
10384;DHT22;5238;43.508;4.980;2023-04-28T11:42:46;30.80;91.30
10384;DHT22;5238;43.508;4.980;2023-04-28T11:45:16;30.70;91.30
10384;DHT22;5238;43.508;4.980;2023-04-28T11:47:45;30.70;91.30
10384;DHT22;5238;43.508;4.980;2023-04-28T11:50:15;30.60;91.30
10384;DHT22;5238;43.508;4.980;2023-04-28T11:52:52;30.50;91.30
10384;DHT22;5238;43.508;4.980;2023-04-28T11:55:21;30.40;91.30
10384;DHT22;5238;43.508;4.980;2023-04-28T11:58:18;30.20;91.30
10384;DHT22;5238;43.508;4.980;2023-04-28T12:01:10;30.00;91.30
10384;DHT22;5238;43.508;4.980;2023-04-28T12:03:48;29.80;91.30
10384;DHT22;5238;43.508;4.980;2023-04-28T12:06:17;29.50;91.30
10384;DHT22;5238;43.508;4.980;2023-04-28T12:08:57;29.20;91.30
10384;DHT22;5238;43.508;4.980;2023-04-28T12:11:29;28.90;91.30
10384;DHT22;5238;43.508;4.980;2023-04-28T12:14:07;28.70;91.30
10384;DHT22;5238;43.508;4.980;2023-04-28T12:16:43;28.60;91.30
10384;DHT22;5238;43.508;4.980;2023-04-28T12:19:11;28.40;91.30
10384;DHT22;5238;43.508;4.980;2023-04-28T12:21:58;28.30;91.30
10384;DHT22;5238;43.508;4.980;2023-04-28T12:24:28;28.10;91.30
10384;DHT22;5238;43.508;4.980;2023-04-28T12:27:13;27.90;91.30
10384;DHT22;5238;43.508;4.980;2023-04-28T12:29:43;27.80;91.30
10384;DHT22;5238;43.508;4.980;2023-04-28T12:32:11;27.70;91.30
10384;DHT22;5238;43.508;4.980;2023-04-28T12:34:51;27.70;91.30
10384;DHT22;5238;43.508;4.980;2023-04-28T12:37:18;27.70;91.30
10384;DHT22;5238;43.508;4.980;2023-04-28T12:39:48;27.60;91.30
10384;DHT22;5238;43.508;4.980;2023-04-28T12:42:18;27.60;91.30
10384;DHT22;5238;43.508;4.980;2023-04-28T12:44:47;27.60;91.30
10384;DHT22;5238;43.508;4.980;2023-04-28T12:47:16;27.40;91.30
10384;DHT22;5238;43.508;4.980;2023-04-28T12:49:52;27.30;91.30
10384;DHT22;5238;43.508;4.980;2023-04-28T12:52:19;27.20;91.30
10384;DHT22;5238;43.508;4.980;2023-04-28T12:54:52;27.20;91.30
10384;DHT22;5238;43.508;4.980;2023-04-28T12:57:21;27.20;91.30
10384;DHT22;5238;43.508;4.980;2023-04-28T12:59:50;27.10;91.30
10384;DHT22;5238;43.508;4.980;2023-04-28T13:02:18;27.10;91.30
10384;DHT22;5238;43.508;4.980;2023-04-28T13:04:46;27.10;91.30
10384;DHT22;5238;43.508;4.980;2023-04-28T13:07:14;27.00;91.30
10384;DHT22;5238;43.508;4.980;2023-04-28T13:09:41;27.00;91.30
10384;DHT22;5238;43.508;4.980;2023-04-28T13:12:10;27.00;91.30
10384;DHT22;5238;43.508;4.980;2023-04-28T13:14:38;27.00;91.30
10384;DHT22;5238;43.508;4.980;2023-04-28T13:17:07;26.90;91.30
10384;DHT22;5238;43.508;4.980;2023-04-28T13:19:34;26.80;91.30
10384;DHT22;5238;43.508;4.980;2023-04-28T13:22:08;26.70;91.30
10384;DHT22;5238;43.508;4.980;2023-04-28T13:24:39;26.60;91.30
10384;DHT22;5238;43.508;4.980;2023-04-28T13:27:18;26.50;91.30
10384;DHT22;5238;43.508;4.980;2023-04-28T13:29:46;26.50;91.30
10384;DHT22;5238;43.508;4.980;2023-04-28T13:32:14;26.40;91.30
10384;DHT22;5238;43.508;4.980;2023-04-28T13:34:43;26.40;91.30
10384;DHT22;5238;43.508;4.980;2023-04-28T13:37:10;26.40;91.30
10384;DHT22;5238;43.508;4.980;2023-04-28T13:39:43;26.30;91.30
10384;DHT22;5238;43.508;4.980;2023-04-28T13:42:11;26.20;91.30
10384;DHT22;5238;43.508;4.980;2023-04-28T13:44:39;26.20;91.30
10384;DHT22;5238;43.508;4.980;2023-04-28T13:47:14;26.10;91.30
10384;DHT22;5238;43.508;4.980;2023-04-28T13:49:46;26.10;91.30
10384;DHT22;5238;43.508;4.980;2023-04-28T13:52:14;26.00;91.30
10384;DHT22;5238;43.508;4.980;2023-04-28T13:54:45;25.90;91.30
10384;DHT22;5238;43.508;4.980;2023-04-28T13:57:12;25.90;91.30
10384;DHT22;5238;43.508;4.980;2023-04-28T13:59:40;25.90;91.30
10384;DHT22;5238;43.508;4.980;2023-04-28T14:02:07;25.90;91.30
10384;DHT22;5238;43.508;4.980;2023-04-28T14:04:41;25.80;91.30
10384;DHT22;5238;43.508;4.980;2023-04-28T14:07:13;25.70;91.30
10384;DHT22;5238;43.508;4.980;2023-04-28T14:09:47;25.70;91.30
10384;DHT22;5238;43.508;4.980;2023-04-28T14:12:14;25.60;91.30
10384;DHT22;5238;43.508;4.980;2023-04-28T14:14:46;25.50;91.30
10384;DHT22;5238;43.508;4.980;2023-04-28T14:17:13;25.50;91.30
10384;DHT22;5238;43.508;4.980;2023-04-28T14:19:40;25.40;91.30
10384;DHT22;5238;43.508;4.980;2023-04-28T14:22:09;25.40;91.30
10384;DHT22;5238;43.508;4.980;2023-04-28T14:24:40;25.30;91.30
10384;DHT22;5238;43.508;4.980;2023-04-28T14:27:26;25.20;91.30
10384;DHT22;5238;43.508;4.980;2023-04-28T14:30:03;25.20;91.30
10384;DHT22;5238;43.508;4.980;2023-04-28T14:32:38;25.10;91.30
10384;DHT22;5238;43.508;4.980;2023-04-28T14:35:09;25.10;91.30
10384;DHT22;5238;43.508;4.980;2023-04-28T14:37:38;25.00;91.30
10384;DHT22;5238;43.508;4.980;2023-04-28T14:40:09;24.90;91.30
10384;DHT22;5238;43.508;4.980;2023-04-28T14:42:36;24.80;91.30
10384;DHT22;5238;43.508;4.980;2023-04-28T14:45:12;24.70;91.30
10384;DHT22;5238;43.508;4.980;2023-04-28T14:47:40;24.60;91.30
10384;DHT22;5238;43.508;4.980;2023-04-28T14:50:09;24.60;91.30
10384;DHT22;5238;43.508;4.980;2023-04-28T14:52:37;24.60;91.30
10384;DHT22;5238;43.508;4.980;2023-04-28T14:55:04;24.50;91.30
10384;DHT22;5238;43.508;4.980;2023-04-28T14:57:31;24.50;91.30
10384;DHT22;5238;43.508;4.980;2023-04-28T14:59:59;24.40;91.30
10384;DHT22;5238;43.508;4.980;2023-04-28T15:02:35;24.40;91.30
10384;DHT22;5238;43.508;4.980;2023-04-28T15:05:04;24.40;91.30
10384;DHT22;5238;43.508;4.980;2023-04-28T15:07:33;24.40;91.30
10384;DHT22;5238;43.508;4.980;2023-04-28T15:10:00;24.40;91.30
10384;DHT22;5238;43.508;4.980;2023-04-28T15:12:27;24.40;91.30
10384;DHT22;5238;43.508;4.980;2023-04-28T15:14:56;24.40;91.30
10384;DHT22;5238;43.508;4.980;2023-04-28T15:17:24;24.40;91.30
10384;DHT22;5238;43.508;4.980;2023-04-28T15:19:52;24.40;91.30
10384;DHT22;5238;43.508;4.980;2023-04-28T15:22:19;24.40;91.30
10384;DHT22;5238;43.508;4.980;2023-04-28T15:24:46;24.40;91.30
10384;DHT22;5238;43.508;4.980;2023-04-28T15:27:16;24.40;91.30
10384;DHT22;5238;43.508;4.980;2023-04-28T15:29:43;24.40;91.30
10384;DHT22;5238;43.508;4.980;2023-04-28T15:32:10;24.40;91.30
10384;DHT22;5238;43.508;4.980;2023-04-28T15:34:42;24.40;91.30
10384;DHT22;5238;43.508;4.980;2023-04-28T15:37:44;24.40;91.30
10384;DHT22;5238;43.508;4.980;2023-04-28T15:40:17;24.40;91.30
10384;DHT22;5238;43.508;4.980;2023-04-28T15:42:45;24.50;91.30
10384;DHT22;5238;43.508;4.980;2023-04-28T15:45:17;24.40;91.30
10384;DHT22;5238;43.508;4.980;2023-04-28T15:47:46;24.40;91.30
10384;DHT22;5238;43.508;4.980;2023-04-28T15:50:17;24.30;91.30
10384;DHT22;5238;43.508;4.980;2023-04-28T15:52:49;24.30;91.30
10384;DHT22;5238;43.508;4.980;2023-04-28T15:55:18;24.30;91.30
10384;DHT22;5238;43.508;4.980;2023-04-28T15:57:50;24.30;91.30
10384;DHT22;5238;43.508;4.980;2023-04-28T16:00:19;24.30;91.30
10384;DHT22;5238;43.508;4.980;2023-04-28T16:02:46;24.30;91.30
10384;DHT22;5238;43.508;4.980;2023-04-28T16:05:14;24.30;91.30
10384;DHT22;5238;43.508;4.980;2023-04-28T16:07:41;24.20;91.30
10384;DHT22;5238;43.508;4.980;2023-04-28T16:10:14;24.20;91.30